Glenbrook, Nevada
Current Conditions -  °F | °C
As of 11:15 PM on Thursday 27 Nov 2014 (Local Time) from KMEV Reporting Station
Clear Clear  
Wind Chill: 52°   Ceiling: Unl
Heat Index: 52°   Visibility: 10mi
Dew Point: 14°   Wind: 5mph
Humidity: 22%   Direction: 130°SE
Pressure: 30.13"   Gusts: NA
Location:  39.09°N, 119.94°W
Report Text: KMEV 280715Z AUTO 13004KT 10SM CLR 11/M10 A3013 RMK AO2
Loading
Personal Weather Stations






























Interactive Weather Map New forecast layout! Learn more

10-Day Weather Forecast

Advertisements
Track Severe Weather on mobile